createdAt,value
2023-02-03T00:01:32.990Z,4.15
2023-02-03T00:04:01.221Z,2.50
2023-02-03T00:06:29.516Z,6.80
2023-02-03T00:08:59.589Z,4.60
2023-02-03T00:11:28.219Z,8.15
2023-02-03T00:13:56.190Z,8.13
2023-02-03T00:16:25.686Z,6.72
2023-02-03T00:18:53.694Z,5.07
2023-02-03T00:21:21.971Z,2.50
2023-02-03T00:23:49.974Z,6.15
2023-02-03T00:26:18.927Z,8.05
2023-02-03T00:28:47.897Z,7.55
2023-02-03T00:31:18.116Z,10.18
2023-02-03T00:33:47.860Z,7.15
2023-02-03T00:36:16.243Z,4.18
2023-02-03T00:38:44.251Z,7.47
2023-02-03T00:41:12.243Z,5.85
2023-02-03T00:43:40.433Z,8.93
2023-02-03T00:46:08.612Z,4.60
2023-02-03T00:48:36.736Z,5.68
2023-02-03T00:51:06.606Z,6.72
2023-02-03T00:53:34.804Z,8.18
2023-02-03T00:56:02.849Z,6.75
2023-02-03T00:58:30.970Z,4.97
2023-02-03T01:00:59.003Z,8.43
2023-02-03T01:03:27.008Z,3.47
2023-02-03T01:05:55.259Z,9.07
2023-02-03T01:08:24.660Z,5.60
2023-02-03T01:10:52.614Z,6.72
2023-02-03T01:13:20.673Z,3.30
2023-02-03T01:15:49.356Z,10.85
2023-02-03T01:18:17.372Z,8.80
2023-02-03T01:20:45.380Z,3.60
2023-02-03T01:23:13.412Z,4.60
2023-02-03T01:25:42.813Z,3.97
2023-02-03T01:28:10.866Z,9.23
2023-02-03T01:30:39.024Z,4.28
2023-02-03T01:33:07.076Z,5.63
2023-02-03T01:35:36.214Z,3.22
2023-02-03T01:38:04.242Z,7.35
2023-02-03T01:40:32.314Z,5.25
2023-02-03T01:43:01.685Z,4.53
2023-02-03T01:45:29.753Z,10.90
2023-02-03T01:48:00.783Z,5.18
2023-02-03T01:50:32.297Z,2.85
2023-02-03T01:53:04.908Z,7.40
2023-02-03T01:55:36.790Z,3.63
2023-02-03T01:58:12.685Z,3.08
2023-02-03T02:00:40.813Z,5.85
2023-02-03T02:03:10.446Z,8.27
2023-02-03T02:05:44.617Z,9.82
2023-02-03T02:08:14.626Z,7.85
2023-02-03T02:10:42.754Z,6.13
2023-02-03T02:13:14.064Z,9.15
2023-02-03T02:15:52.040Z,6.68
2023-02-03T02:18:37.816Z,5.07
2023-02-03T02:21:23.451Z,6.30
2023-02-03T02:24:23.694Z,4.82
2023-02-03T02:30:08.123Z,4.50
2023-02-03T02:32:48.318Z,5.88
2023-02-03T02:37:54.928Z,3.35
2023-02-03T02:40:27.764Z,4.57
2023-02-03T02:43:05.935Z,2.42
2023-02-03T02:45:42.504Z,2.95
2023-02-03T02:48:22.736Z,4.50
2023-02-03T02:55:51.892Z,4.07
2023-02-03T02:58:23.042Z,1.33
2023-02-03T03:00:51.790Z,7.32
2023-02-03T03:03:23.088Z,3.08
2023-02-03T03:05:55.114Z,1.73
2023-02-03T03:08:30.099Z,6.75
2023-02-03T03:10:59.736Z,7.28
2023-02-03T03:13:33.190Z,3.83
2023-02-03T03:16:05.370Z,7.47
2023-02-03T03:18:38.716Z,3.08
2023-02-03T03:21:08.163Z,4.25
2023-02-03T03:23:39.924Z,7.47
2023-02-03T03:26:13.298Z,3.10
2023-02-03T03:28:48.030Z,5.80
2023-02-03T03:31:17.351Z,3.22
2023-02-03T03:33:47.858Z,10.75
2023-02-03T03:36:23.835Z,3.20
2023-02-03T03:38:58.396Z,2.30
2023-02-03T03:41:35.657Z,1.98
2023-02-03T03:44:07.018Z,5.32
2023-02-03T03:46:42.113Z,2.13
2023-02-03T03:49:13.610Z,3.13
2023-02-03T03:51:46.053Z,2.65
2023-02-03T03:54:17.282Z,6.22
2023-02-03T03:56:50.620Z,9.63
2023-02-03T03:59:23.814Z,2.13
2023-02-03T04:01:53.280Z,6.68
2023-02-03T04:04:25.713Z,4.32
2023-02-03T04:06:55.482Z,5.00
2023-02-03T04:09:23.612Z,9.70
2023-02-03T04:12:05.956Z,2.53
2023-02-03T04:14:35.676Z,3.30
2023-02-03T04:17:03.915Z,9.13
2023-02-03T04:19:33.796Z,4.20
2023-02-03T04:22:01.946Z,7.47
2023-02-03T04:24:30.005Z,8.50
2023-02-03T04:26:58.003Z,3.95
2023-02-03T04:29:26.108Z,9.90
2023-02-03T04:31:54.287Z,2.45
2023-02-03T04:34:22.465Z,7.05
2023-02-03T04:36:51.874Z,3.47
2023-02-03T04:39:19.927Z,2.90
2023-02-03T04:41:48.276Z,5.40
2023-02-03T04:44:16.384Z,3.70
2023-02-03T04:46:44.605Z,7.22
2023-02-03T04:49:12.741Z,4.72
2023-02-03T04:51:40.802Z,4.45
2023-02-03T04:54:10.412Z,13.70
2023-02-03T04:56:40.034Z,4.43
2023-02-03T04:59:08.100Z,4.15
2023-02-03T05:01:36.123Z,6.68
2023-02-03T05:04:04.145Z,3.92
2023-02-03T05:06:33.049Z,2.88
2023-02-03T05:09:01.275Z,1.80
2023-02-03T05:11:31.181Z,2.95
2023-02-03T05:13:59.317Z,3.13
2023-02-03T05:16:27.654Z,4.07
2023-02-03T05:18:55.957Z,3.08
2023-02-03T05:21:24.020Z,3.70
2023-02-03T05:23:52.176Z,2.63
2023-02-03T05:26:20.751Z,5.18
2023-02-03T05:28:51.129Z,3.47
2023-02-03T05:31:20.671Z,4.75
2023-02-03T05:33:48.846Z,5.07
2023-02-03T05:36:16.969Z,3.90
2023-02-03T05:38:45.043Z,4.78
2023-02-03T05:41:31.551Z,1.92
2023-02-03T05:44:00.931Z,11.13
2023-02-03T05:46:29.005Z,2.97
2023-02-03T05:48:57.025Z,5.32
2023-02-03T05:51:25.177Z,5.72
2023-02-03T05:53:53.906Z,4.18
2023-02-03T05:56:22.150Z,2.38
2023-02-03T05:58:53.489Z,2.75
2023-02-03T06:01:23.558Z,3.78
2023-02-03T06:03:52.149Z,1.77
2023-02-03T06:06:20.522Z,1.77
2023-02-03T06:08:48.607Z,1.88
2023-02-03T06:11:16.705Z,2.45
2023-02-03T06:13:44.754Z,3.33
2023-02-03T06:16:12.970Z,8.70
2023-02-03T06:18:42.459Z,4.15
2023-02-03T06:21:10.586Z,2.42
2023-02-03T06:23:38.760Z,4.30
2023-02-03T06:26:06.994Z,5.05
2023-02-03T06:28:34.962Z,6.28
2023-02-03T06:31:03.247Z,7.70
2023-02-03T06:33:31.406Z,6.15
2023-02-03T06:36:01.085Z,5.43
2023-02-03T06:38:29.099Z,7.32
2023-02-03T06:40:57.166Z,7.25
2023-02-03T06:43:25.399Z,8.27
2023-02-03T06:45:53.851Z,11.05
2023-02-03T06:48:21.942Z,5.50
2023-02-03T06:50:49.977Z,11.20
2023-02-03T06:53:19.522Z,7.03
2023-02-03T06:55:49.016Z,8.32
2023-02-03T06:58:17.186Z,13.52
2023-02-03T07:00:45.284Z,1.05
2023-02-03T07:03:13.499Z,4.25
2023-02-03T07:05:41.639Z,3.75
2023-02-03T07:08:10.728Z,6.72
2023-02-03T07:10:40.321Z,6.65
2023-02-03T07:13:08.796Z,4.90
2023-02-03T07:15:37.053Z,2.78
2023-02-03T07:18:05.693Z,5.90
2023-02-03T07:20:33.990Z,6.03
2023-02-03T07:23:02.363Z,8.05
2023-02-03T07:25:30.671Z,4.85
2023-02-03T07:28:00.339Z,6.28
2023-02-03T07:30:28.885Z,2.90
2023-02-03T07:32:57.128Z,3.88
2023-02-03T07:35:27.411Z,4.15
2023-02-03T07:37:55.680Z,3.72
2023-02-03T07:40:23.871Z,2.20
2023-02-03T07:42:52.039Z,4.00
2023-02-03T07:45:22.316Z,6.82
2023-02-03T07:47:50.439Z,3.20
2023-02-03T07:50:19.274Z,9.63
2023-02-03T07:52:47.372Z,5.22
2023-02-03T07:55:15.386Z,7.05
2023-02-03T07:57:43.811Z,8.07
2023-02-03T08:00:14.289Z,5.88
2023-02-03T08:02:44.545Z,3.35
2023-02-03T08:07:41.200Z,6.97
2023-02-03T08:10:12.316Z,7.05
2023-02-03T08:12:40.790Z,5.85
2023-02-03T08:15:09.931Z,5.05
2023-02-03T08:17:40.208Z,7.20
2023-02-03T08:22:38.537Z,7.40
2023-02-03T08:25:07.533Z,9.30
2023-02-03T08:27:35.868Z,4.85
2023-02-03T08:30:04.167Z,7.05
2023-02-03T08:32:34.531Z,7.78
2023-02-03T08:35:02.596Z,11.32
2023-02-03T08:37:32.825Z,13.18
2023-02-03T08:40:01.616Z,5.28
2023-02-03T08:42:29.789Z,8.55
2023-02-03T08:44:57.964Z,10.45
2023-02-03T08:47:26.529Z,6.45
2023-02-03T08:49:54.832Z,10.35
2023-02-03T08:52:31.136Z,8.23
2023-02-03T08:55:00.733Z,7.38
2023-02-03T08:57:29.105Z,11.85
2023-02-03T08:59:57.197Z,9.95
2023-02-03T09:02:25.370Z,11.55
2023-02-03T09:04:54.206Z,10.57
2023-02-03T09:07:22.368Z,9.25
2023-02-03T09:09:51.856Z,7.13
2023-02-03T09:12:21.337Z,8.07
2023-02-03T09:14:49.348Z,7.82
2023-02-03T09:17:17.918Z,6.03
2023-02-03T09:19:46.017Z,6.70
2023-02-03T09:22:14.703Z,3.13
2023-02-03T09:24:43.262Z,9.10
2023-02-03T09:27:11.692Z,9.23
2023-02-03T09:29:41.182Z,6.90
2023-02-03T09:32:10.807Z,9.40
2023-02-03T09:34:39.951Z,13.27
2023-02-03T09:37:08.318Z,7.35
2023-02-03T09:39:36.498Z,5.93
2023-02-03T09:42:33.950Z,11.30
2023-02-03T09:45:13.247Z,17.00
2023-02-03T09:47:45.037Z,3.30
2023-02-03T09:50:17.986Z,11.65
2023-02-03T09:52:46.325Z,8.65
2023-02-03T09:55:29.965Z,4.13
2023-02-03T09:58:04.739Z,5.20
2023-02-03T10:00:37.879Z,7.47
2023-02-03T10:03:13.050Z,8.63
2023-02-03T10:06:09.267Z,5.25
2023-02-03T10:09:08.280Z,15.23
2023-02-03T10:12:08.655Z,5.40
2023-02-03T10:14:51.080Z,6.60
2023-02-03T10:17:31.370Z,8.93
2023-02-03T10:20:05.249Z,12.43
2023-02-03T10:22:39.303Z,12.32
2023-02-03T10:25:17.399Z,8.05
2023-02-03T10:27:45.800Z,9.27
2023-02-03T10:30:26.890Z,17.98
2023-02-03T10:33:01.789Z,10.70
2023-02-03T10:35:38.207Z,14.95
2023-02-03T10:38:11.170Z,8.50
2023-02-03T10:40:39.269Z,5.57
2023-02-03T10:43:24.677Z,7.03
2023-02-03T10:45:52.763Z,4.30
2023-02-03T10:48:25.027Z,4.03
2023-02-03T10:50:54.837Z,9.68
2023-02-03T10:53:25.638Z,3.40
2023-02-03T10:56:03.220Z,6.93
2023-02-03T10:58:33.467Z,7.57
2023-02-03T11:01:09.496Z,7.50
2023-02-03T11:03:43.617Z,9.82
2023-02-03T11:06:13.752Z,8.75
2023-02-03T11:11:16.482Z,8.73
2023-02-03T11:13:44.897Z,6.63
2023-02-03T11:16:19.427Z,4.38
2023-02-03T11:18:57.343Z,6.85
2023-02-03T11:21:28.673Z,9.48
2023-02-03T11:24:02.910Z,4.40
2023-02-03T11:26:35.143Z,9.55
2023-02-03T11:29:06.409Z,8.27
2023-02-03T11:31:37.508Z,9.93
2023-02-03T11:34:16.792Z,7.20
2023-02-03T11:36:44.847Z,6.90
2023-02-03T11:39:21.368Z,8.35
2023-02-03T11:41:50.265Z,8.68
2023-02-03T11:44:21.325Z,11.00
2023-02-03T11:46:53.549Z,3.65
2023-02-03T11:49:56.442Z,7.70
2023-02-03T11:52:49.167Z,6.13
2023-02-03T11:55:32.733Z,7.38
2023-02-03T11:58:18.237Z,6.97
2023-02-03T12:00:56.188Z,4.97
2023-02-03T12:04:05.784Z,3.97
2023-02-03T12:07:00.031Z,7.97
2023-02-03T12:09:39.002Z,4.93
2023-02-03T12:12:30.132Z,3.78
2023-02-03T12:15:14.514Z,4.55
2023-02-03T12:17:55.924Z,9.55
2023-02-03T12:20:32.395Z,3.63
2023-02-03T12:23:15.094Z,3.67
2023-02-03T12:25:58.522Z,3.30
2023-02-03T12:28:43.427Z,3.35
2023-02-03T12:31:19.769Z,3.20
2023-02-03T12:33:52.978Z,5.07
2023-02-03T12:36:24.789Z,5.80
2023-02-03T12:39:00.515Z,3.95
2023-02-03T12:41:32.863Z,2.10
2023-02-03T12:44:05.534Z,2.05
2023-02-03T12:46:40.851Z,1.88
2023-02-03T12:49:21.052Z,2.03
2023-02-03T12:54:33.191Z,3.00
2023-02-03T12:57:13.011Z,4.50
2023-02-03T12:59:45.257Z,4.68
2023-02-03T13:02:19.559Z,1.90
2023-02-03T13:04:56.872Z,4.00
2023-02-03T13:07:32.471Z,3.38
2023-02-03T13:10:06.387Z,1.95
2023-02-03T13:12:42.521Z,3.22
2023-02-03T13:15:24.813Z,6.50
2023-02-03T13:17:58.757Z,3.85
2023-02-03T13:20:37.871Z,3.10
2023-02-03T13:23:10.678Z,2.20
2023-02-03T13:25:53.143Z,2.05
2023-02-03T13:28:33.630Z,2.35
2023-02-03T13:31:16.410Z,1.85
2023-02-03T13:34:13.463Z,1.73
2023-02-03T13:37:12.265Z,7.63
2023-02-03T13:40:13.993Z,2.90
2023-02-03T13:42:48.412Z,3.53
2023-02-03T13:45:24.723Z,3.53
2023-02-03T13:47:56.273Z,2.95
2023-02-03T13:50:27.742Z,2.05
2023-02-03T13:53:00.514Z,4.85
2023-02-03T13:55:37.966Z,2.42
2023-02-03T13:58:21.381Z,0.70
2023-02-03T14:01:06.700Z,1.63
2023-02-03T14:03:46.057Z,3.67
2023-02-03T14:07:02.824Z,1.23
2023-02-03T14:09:47.524Z,4.70
2023-02-03T14:12:40.020Z,2.17
2023-02-03T14:15:32.667Z,5.07
2023-02-03T14:18:07.287Z,1.30
2023-02-03T14:21:09.363Z,3.35
2023-02-03T14:23:47.013Z,2.47
2023-02-03T14:26:29.875Z,2.58
2023-02-03T14:28:58.422Z,1.40
2023-02-03T14:31:28.876Z,0.98
2023-02-03T14:34:15.985Z,2.80
2023-02-03T14:36:56.439Z,3.40
2023-02-03T14:40:06.738Z,5.68
2023-02-03T14:43:11.584Z,1.10
2023-02-03T14:46:18.462Z,2.70
2023-02-03T14:49:01.591Z,2.13
2023-02-03T14:51:41.482Z,4.03
2023-02-03T14:54:24.858Z,2.47
2023-02-03T14:57:22.295Z,5.85
2023-02-03T14:59:58.218Z,3.55
2023-02-03T15:02:28.744Z,2.83
2023-02-03T15:05:30.568Z,2.90
2023-02-03T15:08:03.306Z,3.13
2023-02-03T15:10:43.066Z,1.63
2023-02-03T15:13:25.900Z,2.00
2023-02-03T15:15:55.467Z,2.70
2023-02-03T15:18:30.404Z,3.20
2023-02-03T15:20:59.012Z,2.17
2023-02-03T15:23:30.430Z,3.08
2023-02-03T15:26:00.188Z,3.72
2023-02-03T15:28:30.046Z,5.00
2023-02-03T15:31:02.761Z,5.38
2023-02-03T15:33:33.178Z,1.75
2023-02-03T15:36:07.069Z,3.50
2023-02-03T15:38:41.036Z,3.10
2023-02-03T15:41:12.792Z,3.72
2023-02-03T15:43:44.023Z,3.53
2023-02-03T15:46:19.438Z,1.23
2023-02-03T15:48:51.815Z,3.15
2023-02-03T15:51:23.187Z,1.02
2023-02-03T15:53:57.856Z,4.85
2023-02-03T15:56:37.942Z,1.80
2023-02-03T15:59:07.098Z,4.20
2023-02-03T16:01:35.670Z,2.20
2023-02-03T16:04:11.482Z,3.80
2023-02-03T16:06:43.865Z,2.35
2023-02-03T16:09:29.743Z,1.75
2023-02-03T16:12:07.139Z,2.28
2023-02-03T16:14:36.965Z,6.80
2023-02-03T16:17:08.362Z,0.65
2023-02-03T16:19:40.388Z,2.97
2023-02-03T16:22:33.473Z,0.50
2023-02-03T16:25:16.785Z,3.05
2023-02-03T16:27:46.786Z,1.05
2023-02-03T16:30:42.009Z,3.30
2023-02-03T16:33:34.224Z,0.98
2023-02-03T16:36:28.318Z,1.17
2023-02-03T16:39:14.204Z,2.22
2023-02-03T16:42:07.604Z,4.70
2023-02-03T16:44:53.144Z,0.70
2023-02-03T16:47:44.730Z,4.00
2023-02-03T16:50:38.810Z,5.35
2023-02-03T16:53:08.051Z,1.08
2023-02-03T16:55:36.215Z,8.00
2023-02-03T16:58:05.786Z,10.10
2023-02-03T17:00:35.345Z,6.47
2023-02-03T17:03:05.885Z,3.03
2023-02-03T17:05:38.657Z,10.60
2023-02-03T17:08:07.243Z,14.13
2023-02-03T17:10:35.743Z,20.63
2023-02-03T17:13:05.614Z,24.05
2023-02-03T17:15:33.713Z,16.88
2023-02-03T17:18:02.269Z,5.57
2023-02-03T17:20:30.520Z,4.93
2023-02-03T17:22:58.684Z,3.95
2023-02-03T17:25:27.193Z,6.20
2023-02-03T17:27:55.800Z,3.22
2023-02-03T17:30:25.649Z,3.60
2023-02-03T17:32:59.047Z,4.90
2023-02-03T17:35:28.070Z,4.60
2023-02-03T17:37:57.437Z,3.47
2023-02-03T17:54:29.274Z,50.75
2023-02-03T17:57:23.240Z,10.73
2023-02-03T17:59:55.392Z,9.90
2023-02-03T18:02:24.828Z,5.13
2023-02-03T18:04:52.894Z,9.27
2023-02-03T18:07:20.971Z,5.47
2023-02-03T18:09:49.000Z,3.67
2023-02-03T18:12:17.283Z,4.15
2023-02-03T18:14:45.353Z,8.68
2023-02-03T18:17:14.982Z,8.93
2023-02-03T18:19:49.052Z,23.08
2023-02-03T18:22:18.733Z,32.35
2023-02-03T18:24:50.856Z,16.35
2023-02-03T18:27:19.610Z,19.23
2023-02-03T18:29:50.265Z,21.80
2023-02-03T18:32:20.019Z,17.58
2023-02-03T18:34:52.235Z,16.50
2023-02-03T18:37:20.254Z,25.92
2023-02-03T18:39:48.510Z,28.30
2023-02-03T18:42:16.949Z,25.60
2023-02-03T18:44:47.376Z,24.58
2023-02-03T18:47:16.022Z,25.65
2023-02-03T18:49:45.682Z,22.92
2023-02-03T18:52:16.498Z,32.58
2023-02-03T18:54:48.468Z,33.30
2023-02-03T18:57:16.739Z,31.15
2023-02-03T18:59:46.768Z,21.40
2023-02-03T19:02:15.580Z,9.15
2023-02-03T19:04:44.010Z,8.27
2023-02-03T19:07:13.182Z,8.52
2023-02-03T19:09:43.253Z,10.38
2023-02-03T19:12:11.612Z,9.88
2023-02-03T19:14:40.649Z,9.20
2023-02-03T19:17:10.327Z,10.80
2023-02-03T19:19:38.513Z,19.10
2023-02-03T19:22:09.338Z,13.02
2023-02-03T19:24:37.475Z,13.98
2023-02-03T19:27:06.944Z,13.65
2023-02-03T19:29:35.345Z,11.65
2023-02-03T19:32:03.630Z,15.77
2023-02-03T19:34:32.859Z,15.93
2023-02-03T19:37:01.238Z,15.43
2023-02-03T19:39:32.384Z,16.13
2023-02-03T19:42:01.390Z,14.80
2023-02-03T19:44:30.840Z,18.98
2023-02-03T19:46:58.963Z,17.13
2023-02-03T19:49:28.909Z,9.57
2023-02-03T19:51:57.060Z,11.00
2023-02-03T19:54:25.359Z,12.40
2023-02-03T19:56:53.486Z,15.38
2023-02-03T19:59:21.645Z,16.20
2023-02-03T20:01:51.145Z,13.23
2023-02-03T20:04:19.624Z,14.18
2023-02-03T20:06:48.501Z,17.20
2023-02-03T20:09:16.765Z,16.02
2023-02-03T20:11:44.845Z,16.10
2023-02-03T20:14:16.746Z,15.15
2023-02-03T20:16:45.114Z,13.68
2023-02-03T20:19:16.074Z,14.32
2023-02-03T20:21:44.253Z,19.50
2023-02-03T20:24:15.116Z,15.23
2023-02-03T20:26:43.567Z,13.00
2023-02-03T20:29:11.769Z,12.07
2023-02-03T20:31:40.278Z,10.75
2023-02-03T20:34:09.854Z,10.27
2023-02-03T20:36:40.975Z,10.95
2023-02-03T20:39:19.201Z,10.48
2023-02-03T20:41:49.875Z,7.53
2023-02-03T20:44:18.850Z,10.88
2023-02-03T20:46:47.588Z,8.07
2023-02-03T20:49:18.230Z,8.63
2023-02-03T20:51:48.710Z,4.63
2023-02-03T20:54:19.803Z,7.72
2023-02-03T20:56:49.602Z,9.77
2023-02-03T20:59:19.698Z,8.10
2023-02-03T21:01:49.255Z,8.57
2023-02-03T21:04:36.493Z,5.53
2023-02-03T21:07:14.875Z,5.88
2023-02-03T21:09:45.909Z,9.98
2023-02-03T21:13:19.609Z,5.70
2023-02-03T21:15:56.128Z,10.43
2023-02-03T21:19:15.829Z,9.93
2023-02-03T21:22:35.959Z,9.43
2023-02-03T21:25:48.745Z,10.73
2023-02-03T21:28:37.044Z,9.50
2023-02-03T21:31:46.471Z,11.93
2023-02-03T21:34:40.799Z,12.00
2023-02-03T21:37:29.641Z,7.70
2023-02-03T21:39:58.805Z,7.47
2023-02-03T21:42:42.076Z,7.95
2023-02-03T21:45:40.209Z,7.25
2023-02-03T21:48:35.466Z,5.82
2023-02-03T21:51:05.218Z,6.80
2023-02-03T21:53:35.897Z,6.90
2023-02-03T21:56:23.237Z,5.03
2023-02-03T21:58:55.427Z,8.20
2023-02-03T22:01:27.228Z,5.93
2023-02-03T22:03:56.611Z,5.75
2023-02-03T22:06:27.486Z,5.10
2023-02-03T22:08:57.468Z,4.22
2023-02-03T22:11:27.401Z,7.93
2023-02-03T22:13:58.834Z,4.00
2023-02-03T22:16:28.312Z,5.97
2023-02-03T22:18:56.794Z,5.60
2023-02-03T22:21:25.235Z,5.30
2023-02-03T22:23:53.685Z,7.38
2023-02-03T22:26:23.388Z,4.20
2023-02-03T22:28:54.299Z,5.22
2023-02-03T22:31:24.366Z,4.13
2023-02-03T22:36:23.539Z,4.18
2023-02-03T22:38:52.606Z,5.15
2023-02-03T22:41:21.704Z,8.18
2023-02-03T22:43:50.235Z,3.63
2023-02-03T22:46:18.417Z,8.18
2023-02-03T22:48:50.092Z,13.30
2023-02-03T22:51:20.611Z,11.05
2023-02-03T22:53:49.037Z,11.57
2023-02-03T22:56:17.195Z,5.93
2023-02-03T22:58:45.394Z,3.65
2023-02-03T23:01:13.415Z,3.97
2023-02-03T23:03:41.521Z,2.92
2023-02-03T23:06:11.662Z,3.33
2023-02-03T23:11:08.212Z,2.70
2023-02-03T23:13:36.344Z,4.43
2023-02-03T23:16:04.677Z,2.00
2023-02-03T23:18:32.818Z,1.65
2023-02-03T23:21:01.008Z,1.77
2023-02-03T23:23:30.453Z,1.67
2023-02-03T23:25:58.588Z,8.85
2023-02-03T23:28:26.654Z,2.30
2023-02-03T23:30:56.296Z,1.25
2023-02-03T23:33:25.462Z,2.88
2023-02-03T23:35:55.383Z,1.73
2023-02-03T23:38:24.572Z,1.75
2023-02-03T23:40:56.085Z,2.37
2023-02-03T23:43:24.278Z,0.98
2023-02-03T23:45:52.535Z,0.98
2023-02-03T23:48:20.602Z,2.40
2023-02-03T23:50:49.243Z,0.70
2023-02-03T23:53:17.300Z,2.03
2023-02-03T23:55:45.420Z,1.48
2023-02-03T23:58:14.923Z,5.25
